createdAt,value
2023-02-17T00:08:43.585Z,18.52
2023-02-17T00:09:47.254Z,19.55
2023-02-17T00:10:59.941Z,17.65
2023-02-17T00:12:05.750Z,16.52
2023-02-17T00:13:09.822Z,18.58
2023-02-17T00:14:14.751Z,16.13
2023-02-17T00:15:18.456Z,16.67
2023-02-17T00:16:32.766Z,15.68
2023-02-17T00:17:45.178Z,15.85
2023-02-17T00:18:57.850Z,16.73
2023-02-17T00:20:01.788Z,15.68
2023-02-17T00:21:18.945Z,16.58
2023-02-17T00:22:22.562Z,17.75
2023-02-17T00:23:25.757Z,14.23
2023-02-17T00:24:32.734Z,17.77
2023-02-17T00:25:42.247Z,18.20
2023-02-17T00:26:48.395Z,15.18
2023-02-17T00:27:55.641Z,19.55
2023-02-17T00:29:01.077Z,17.90
2023-02-17T00:30:06.667Z,16.33
2023-02-17T00:31:31.153Z,15.20
2023-02-17T00:33:08.378Z,15.50
2023-02-17T00:34:42.884Z,19.98
2023-02-17T00:36:55.748Z,17.10
2023-02-17T00:38:07.891Z,21.45
2023-02-17T00:39:15.737Z,17.65
2023-02-17T00:40:20.911Z,20.10
2023-02-17T00:41:29.478Z,18.65
2023-02-17T00:42:35.552Z,19.95
2023-02-17T00:43:40.879Z,19.48
2023-02-17T00:44:49.980Z,18.67
2023-02-17T00:46:00.105Z,21.75
2023-02-17T00:47:15.619Z,20.00
2023-02-17T00:48:19.800Z,21.73
2023-02-17T00:49:26.664Z,20.10
2023-02-17T00:50:33.661Z,20.17
2023-02-17T00:51:42.073Z,18.75
2023-02-17T00:52:45.944Z,19.33
2023-02-17T00:53:51.418Z,18.63
2023-02-17T00:54:57.855Z,20.23
2023-02-17T00:56:03.208Z,20.10
2023-02-17T00:57:06.958Z,20.20
2023-02-17T00:58:11.890Z,22.13
2023-02-17T00:59:16.363Z,23.95
2023-02-17T01:00:21.056Z,22.85
2023-02-17T02:13:10.832Z,23.08
2023-02-17T02:14:37.224Z,27.35
2023-02-17T02:15:57.180Z,26.98
2023-02-17T02:17:12.131Z,27.40
2023-02-17T02:18:54.851Z,27.67
2023-02-17T02:20:12.917Z,27.48
2023-02-17T02:21:40.540Z,28.83
2023-02-17T02:23:21.259Z,33.08
2023-02-17T02:26:32.088Z,30.88
2023-02-17T02:27:46.208Z,33.85
2023-02-17T02:29:20.645Z,31.92
2023-02-17T02:30:29.852Z,31.63
2023-02-17T02:32:07.095Z,34.33
2023-02-17T02:33:49.705Z,30.13
2023-02-17T02:35:03.545Z,31.83
2023-02-17T02:36:30.270Z,32.45
2023-02-17T02:37:50.789Z,30.88
2023-02-17T02:39:18.302Z,29.60
2023-02-17T02:40:29.459Z,32.38
2023-02-17T02:41:46.696Z,32.63
2023-02-17T02:43:03.949Z,28.75
2023-02-17T02:44:12.756Z,32.58
2023-02-17T02:45:22.520Z,35.47
2023-02-17T02:46:26.950Z,34.13
2023-02-17T02:47:47.076Z,31.73
2023-02-17T02:48:54.299Z,31.30
2023-02-17T02:50:01.501Z,33.70
2023-02-17T02:51:16.629Z,39.08
2023-02-17T02:54:31.715Z,40.50
2023-02-17T02:56:01.459Z,32.13
2023-02-17T02:57:28.955Z,39.83
2023-02-17T03:07:55.456Z,33.17
2023-02-17T03:09:12.498Z,37.20
2023-02-17T03:10:19.487Z,41.80
2023-02-17T03:11:33.464Z,37.58
2023-02-17T03:12:40.054Z,36.53
2023-02-17T03:13:46.694Z,38.90
2023-02-17T03:14:55.053Z,33.92
2023-02-17T03:16:00.799Z,38.10
2023-02-17T03:17:05.568Z,34.30
2023-02-17T03:18:11.718Z,36.35
2023-02-17T03:19:24.886Z,34.75
2023-02-17T03:20:37.059Z,37.53
2023-02-17T03:21:55.577Z,35.58
2023-02-17T03:23:02.670Z,34.92
2023-02-17T03:24:10.018Z,36.38
2023-02-17T03:25:20.398Z,38.45
2023-02-17T03:26:27.696Z,36.70
2023-02-17T03:27:34.398Z,39.88
2023-02-17T03:28:41.701Z,37.17
2023-02-17T03:29:47.931Z,37.05
2023-02-17T03:30:52.834Z,36.20
2023-02-17T03:31:59.910Z,38.20
2023-02-17T03:33:05.418Z,38.50
2023-02-17T03:34:15.003Z,39.78
2023-02-17T03:35:19.915Z,39.75
2023-02-17T03:36:31.290Z,38.40
2023-02-17T03:37:43.042Z,37.83
2023-02-17T03:42:19.451Z,38.85
2023-02-17T03:43:28.036Z,38.20
2023-02-17T03:44:32.823Z,37.67
2023-02-17T03:45:38.677Z,42.17
2023-02-17T03:46:44.878Z,37.95
2023-02-17T03:47:51.275Z,41.08
2023-02-17T03:48:57.613Z,39.00
2023-02-17T03:50:05.133Z,39.80
2023-02-17T03:51:24.765Z,43.72
2023-02-17T03:52:36.258Z,40.95
2023-02-17T03:53:42.188Z,42.35
2023-02-17T03:54:47.087Z,39.55
2023-02-17T03:55:52.750Z,42.80
2023-02-17T03:57:02.825Z,39.03
2023-02-17T03:58:14.707Z,40.20
2023-02-17T03:59:20.535Z,40.95
2023-02-17T04:00:27.228Z,41.60
2023-02-17T04:01:31.564Z,41.08
2023-02-17T04:02:38.676Z,40.55
2023-02-17T04:03:44.618Z,44.40
2023-02-17T04:04:50.639Z,39.08
2023-02-17T04:05:55.877Z,40.67
2023-02-17T04:06:59.536Z,38.35
2023-02-17T04:08:07.033Z,37.80
2023-02-17T04:09:12.717Z,38.25
2023-02-17T04:10:16.287Z,39.75
2023-02-17T04:11:20.840Z,48.03
2023-02-17T04:12:30.124Z,38.55
2023-02-17T04:13:40.711Z,41.67
2023-02-17T04:14:44.928Z,43.17
2023-02-17T04:15:58.130Z,39.85
2023-02-17T04:17:03.225Z,39.60
2023-02-17T04:18:08.689Z,42.30
2023-02-17T04:19:49.029Z,44.40
2023-02-17T04:20:54.714Z,40.85
2023-02-17T04:56:33.685Z,35.58
2023-02-17T04:59:36.770Z,40.13
2023-02-17T05:00:59.880Z,45.55
2023-02-17T05:02:07.287Z,43.60
2023-02-17T05:05:11.518Z,49.28
2023-02-17T05:06:15.524Z,48.53
2023-02-17T05:07:49.472Z,47.25
2023-02-17T05:09:07.803Z,41.42
2023-02-17T05:10:56.692Z,49.10
2023-02-17T05:12:02.064Z,37.70
2023-02-17T05:13:22.208Z,36.13
2023-02-17T05:14:31.719Z,40.85
2023-02-17T05:22:13.324Z,41.13
2023-02-17T05:23:20.773Z,40.83
2023-02-17T05:24:25.929Z,36.45
2023-02-17T05:25:35.156Z,36.15
2023-02-17T05:26:43.138Z,39.13
2023-02-17T05:28:15.741Z,38.17
2023-02-17T15:13:32.342Z,33.30
2023-02-17T15:14:36.461Z,35.53
2023-02-17T15:15:46.074Z,30.45
2023-02-17T15:17:01.499Z,31.83
2023-02-17T15:18:11.846Z,32.38
2023-02-17T15:19:20.523Z,31.42
2023-02-17T15:20:30.974Z,30.30
2023-02-17T16:02:50.867Z,34.75
2023-02-17T16:03:57.042Z,32.30
2023-02-17T16:05:06.565Z,36.55
2023-02-17T17:22:51.637Z,42.65
2023-02-17T17:24:01.896Z,42.17
2023-02-17T17:25:10.848Z,44.83
2023-02-17T17:27:01.010Z,49.60
2023-02-17T17:43:03.149Z,55.95
2023-02-17T17:44:21.917Z,56.95
2023-02-17T17:45:32.526Z,59.47
2023-02-17T17:46:39.409Z,57.60
2023-02-17T17:49:11.214Z,55.08
2023-02-17T17:50:27.753Z,58.05
2023-02-17T17:51:40.171Z,55.00
2023-02-17T17:53:05.513Z,59.42
2023-02-17T17:55:42.080Z,58.38
2023-02-17T17:56:54.116Z,56.35
2023-02-17T17:58:07.580Z,54.30
2023-02-17T17:59:21.397Z,57.72
2023-02-17T18:00:35.353Z,56.35
2023-02-17T18:01:43.243Z,58.55
2023-02-17T18:02:49.125Z,62.92
2023-02-17T18:04:00.871Z,58.22
2023-02-17T18:05:11.796Z,60.88
2023-02-17T18:50:58.774Z,52.38
2023-02-17T18:52:01.547Z,51.92
2023-02-17T18:53:05.459Z,51.45
2023-02-17T18:54:13.040Z,49.30
2023-02-17T18:55:19.176Z,56.33
2023-02-17T18:56:26.778Z,51.30
2023-02-17T18:57:29.859Z,48.35
2023-02-17T18:58:42.464Z,51.05
2023-02-17T18:59:51.461Z,50.78
2023-02-17T19:00:55.225Z,51.38
2023-02-17T19:02:09.078Z,58.35
2023-02-17T19:05:02.317Z,52.53
2023-02-17T19:06:13.795Z,51.28
2023-02-17T19:07:17.076Z,53.40
2023-02-17T19:08:24.643Z,53.47
2023-02-17T19:09:45.268Z,50.08
2023-02-17T19:10:50.482Z,52.25
2023-02-17T19:11:54.699Z,56.22
2023-02-17T19:12:59.754Z,53.03
2023-02-17T19:14:06.836Z,54.63
2023-02-17T19:15:13.675Z,52.10
2023-02-17T19:16:24.599Z,53.95
2023-02-17T19:17:27.593Z,63.00
2023-02-17T19:18:31.531Z,53.08
2023-02-17T19:19:40.912Z,59.58
2023-02-17T19:20:45.993Z,52.13
2023-02-17T19:21:56.196Z,55.97
2023-02-17T19:23:03.730Z,49.10
2023-02-17T19:24:10.120Z,53.80
2023-02-17T19:25:13.857Z,51.53
2023-02-17T19:26:19.687Z,50.63
2023-02-17T19:27:22.952Z,49.72
2023-02-17T19:28:27.193Z,50.67
2023-02-17T19:29:31.770Z,49.55
2023-02-17T19:30:35.247Z,50.72
2023-02-17T19:31:42.018Z,50.83
2023-02-17T19:32:46.648Z,49.17
2023-02-17T19:33:49.811Z,47.28
2023-02-17T19:34:53.128Z,45.30
2023-02-17T19:35:56.801Z,51.13
2023-02-17T19:37:05.393Z,55.15
2023-02-17T19:38:12.367Z,53.33
2023-02-17T19:39:22.713Z,51.22
2023-02-17T19:40:26.649Z,52.93
2023-02-17T19:41:30.121Z,51.50
2023-02-17T19:42:33.982Z,50.75
2023-02-17T19:43:40.467Z,56.90
2023-02-17T19:44:44.310Z,53.45
2023-02-17T19:45:51.324Z,54.47
2023-02-17T19:46:58.950Z,52.40
2023-02-17T19:48:10.157Z,51.58
2023-02-17T19:49:21.588Z,59.30
2023-02-17T19:50:24.953Z,51.33
2023-02-17T19:51:32.104Z,50.35
2023-02-17T19:52:39.776Z,54.78
2023-02-17T19:53:44.177Z,56.17
2023-02-17T19:54:51.261Z,54.30
2023-02-17T19:55:54.649Z,51.13
2023-02-17T19:56:57.832Z,55.10
2023-02-17T19:58:03.807Z,56.67
2023-02-17T19:59:10.549Z,52.75
2023-02-17T20:00:18.942Z,55.55
2023-02-17T20:01:33.257Z,53.85
2023-02-17T20:02:36.929Z,62.90
2023-02-17T20:03:42.693Z,60.08
2023-02-17T20:04:46.034Z,53.00
2023-02-17T20:05:49.341Z,57.47
2023-02-17T20:06:53.660Z,58.58
2023-02-17T20:07:57.734Z,58.42
2023-02-17T20:09:06.316Z,50.88
2023-02-17T20:10:12.629Z,54.88
2023-02-17T20:11:15.313Z,57.10
2023-02-17T20:12:21.982Z,56.63
2023-02-17T20:13:25.888Z,59.35
2023-02-17T20:14:29.269Z,57.97
2023-02-17T20:15:31.331Z,55.80
2023-02-17T20:16:36.358Z,58.78
2023-02-17T20:17:41.598Z,65.97
2023-02-17T20:18:50.746Z,58.28
2023-02-17T20:19:53.663Z,55.10
2023-02-17T20:20:58.932Z,54.92
2023-02-17T20:22:01.242Z,56.05
2023-02-17T20:23:08.018Z,58.75
2023-02-17T20:24:09.931Z,56.75
2023-02-17T20:25:12.150Z,57.78
2023-02-17T20:26:21.778Z,63.45
2023-02-17T20:27:23.922Z,62.08
2023-02-17T20:28:28.586Z,57.15
2023-02-17T20:29:30.683Z,58.92
2023-02-17T20:30:32.760Z,57.20
2023-02-17T20:31:36.999Z,63.83
2023-02-17T20:32:39.695Z,62.55
2023-02-17T20:33:42.244Z,58.63
2023-02-17T20:34:45.783Z,54.58
2023-02-17T20:35:47.934Z,56.63
2023-02-17T20:36:49.961Z,51.95
2023-02-17T20:37:52.249Z,54.15
2023-02-17T20:38:54.376Z,60.35
2023-02-17T20:39:56.415Z,58.33
2023-02-17T20:41:00.399Z,54.53
2023-02-17T20:42:03.261Z,58.83
2023-02-17T20:43:06.477Z,54.63
2023-02-17T20:44:11.468Z,54.95
2023-02-17T20:45:13.557Z,62.47
2023-02-17T20:46:27.165Z,56.05
2023-02-17T20:47:29.424Z,53.15
2023-02-17T20:48:31.708Z,52.85
2023-02-17T20:49:33.686Z,57.75
2023-02-17T20:50:36.967Z,55.10
2023-02-17T20:51:38.922Z,59.25
2023-02-17T20:52:40.871Z,52.25
2023-02-17T20:53:42.920Z,51.50
2023-02-17T20:54:46.348Z,48.75
2023-02-17T20:55:48.537Z,51.70
2023-02-17T20:56:51.859Z,59.92
2023-02-17T20:57:54.368Z,52.58
2023-02-17T20:58:56.457Z,56.13
2023-02-17T20:59:58.460Z,56.70
2023-02-17T21:01:00.487Z,54.45
2023-02-17T21:02:02.527Z,54.50
2023-02-17T21:03:05.099Z,55.20
2023-02-17T21:04:08.171Z,57.03
2023-02-17T21:05:11.009Z,51.38
2023-02-17T21:06:31.438Z,53.33
2023-02-17T21:07:33.413Z,49.38
2023-02-17T21:08:35.382Z,51.80
2023-02-17T21:09:37.417Z,56.83
2023-02-17T21:10:40.868Z,56.80
2023-02-17T21:11:43.741Z,53.30
2023-02-17T21:12:46.303Z,50.40
2023-02-17T21:13:48.992Z,51.05
2023-02-17T21:14:50.942Z,54.28
2023-02-17T21:15:52.969Z,53.80
2023-02-17T21:16:54.959Z,56.72
2023-02-17T21:17:56.840Z,57.85
2023-02-17T21:19:01.312Z,55.05
2023-02-17T21:20:04.508Z,54.35
2023-02-17T21:21:06.980Z,58.08
2023-02-17T21:22:08.883Z,58.25
2023-02-17T21:23:10.834Z,58.85
2023-02-17T21:24:12.747Z,55.80
2023-02-17T21:25:14.769Z,55.90
2023-02-17T21:26:17.253Z,59.55
2023-02-17T21:27:19.564Z,59.95
2023-02-17T21:28:21.617Z,57.70
2023-02-17T21:29:23.667Z,59.40
2023-02-17T21:30:25.732Z,59.33
2023-02-17T21:31:29.143Z,58.28
2023-02-17T21:32:31.930Z,53.92
2023-02-17T21:33:34.117Z,60.15
2023-02-17T21:34:38.559Z,57.45
2023-02-17T21:35:40.627Z,64.03
2023-02-17T21:36:42.977Z,62.17
2023-02-17T21:37:45.366Z,59.00
2023-02-17T21:38:47.962Z,61.25
2023-02-17T21:39:50.054Z,62.13
2023-02-17T21:40:52.020Z,58.22
2023-02-17T21:41:55.595Z,61.45
2023-02-17T21:43:16.298Z,56.42
2023-02-17T21:44:36.743Z,60.25
2023-02-17T21:45:39.478Z,55.03
2023-02-17T21:46:43.376Z,60.22
2023-02-17T21:47:46.061Z,58.30
2023-02-17T21:48:48.755Z,64.18
2023-02-17T21:49:54.596Z,65.03
2023-02-17T21:51:07.036Z,61.10
2023-02-17T21:52:09.073Z,59.92
2023-02-17T21:53:10.944Z,59.35
2023-02-17T21:54:12.994Z,59.95
2023-02-17T21:55:14.965Z,58.28
2023-02-17T21:56:17.124Z,58.50
2023-02-17T21:57:19.744Z,62.25
2023-02-17T21:58:21.842Z,61.40
2023-02-17T21:59:26.084Z,60.83
2023-02-17T22:00:28.479Z,63.75
2023-02-17T22:01:31.266Z,58.83
2023-02-17T22:02:34.879Z,62.75
2023-02-17T22:03:36.775Z,60.75
2023-02-17T22:04:38.964Z,64.10
2023-02-17T22:05:40.981Z,64.90
2023-02-17T22:06:43.134Z,62.85
2023-02-17T22:07:48.981Z,62.35
2023-02-17T22:08:51.749Z,59.90
2023-02-17T22:09:53.677Z,65.13
2023-02-17T22:10:55.612Z,69.22
2023-02-17T22:11:57.692Z,61.33
2023-02-17T22:12:59.736Z,68.63
2023-02-17T22:14:05.119Z,64.32
2023-02-17T22:15:10.637Z,65.18
2023-02-17T22:16:13.237Z,63.85
2023-02-17T22:17:17.651Z,66.00
2023-02-17T22:18:19.631Z,61.65
2023-02-17T22:19:24.288Z,62.97
2023-02-17T22:20:27.269Z,66.93
2023-02-17T22:21:29.341Z,70.93
2023-02-17T22:22:31.260Z,66.25
2023-02-17T22:23:33.379Z,66.65
2023-02-17T22:24:35.384Z,60.92
2023-02-17T22:25:43.732Z,69.03
2023-02-17T22:26:45.916Z,60.90
2023-02-17T22:27:48.089Z,62.13
2023-02-17T22:28:50.941Z,69.72
2023-02-17T22:29:52.952Z,67.93
2023-02-17T22:30:54.865Z,67.25
2023-02-17T22:31:57.522Z,77.65
2023-02-17T22:32:59.626Z,66.45
2023-02-17T22:34:05.175Z,62.08
2023-02-17T22:35:07.161Z,69.28
2023-02-17T22:36:13.102Z,73.85
2023-02-17T22:37:15.100Z,68.82
2023-02-17T22:38:17.514Z,76.78
2023-02-17T22:39:19.558Z,72.10
2023-02-17T22:40:21.555Z,75.20
2023-02-17T22:41:25.844Z,68.45
2023-02-17T22:42:28.324Z,75.65
2023-02-17T22:43:30.740Z,74.05
2023-02-17T22:44:32.791Z,74.45
2023-02-17T22:45:34.773Z,77.22
2023-02-17T22:46:36.846Z,75.88
2023-02-17T22:47:38.776Z,77.35
2023-02-17T22:48:40.736Z,71.85
2023-02-17T22:49:43.100Z,67.53
2023-02-17T22:50:45.052Z,72.25
2023-02-17T22:51:47.001Z,68.65
2023-02-17T22:52:48.927Z,67.55
2023-02-17T22:53:51.031Z,70.40
2023-02-17T22:54:53.023Z,77.03
2023-02-17T22:55:56.295Z,71.70
2023-02-17T22:56:58.769Z,67.63
2023-02-17T22:58:01.034Z,68.63
2023-02-17T22:59:05.951Z,67.78
2023-02-17T23:00:08.281Z,70.95
2023-02-17T23:01:16.025Z,68.63
2023-02-17T23:02:17.964Z,68.25
2023-02-17T23:03:20.974Z,70.95
2023-02-17T23:04:22.979Z,71.25
2023-02-17T23:05:24.990Z,67.43
2023-02-17T23:06:30.189Z,70.57
2023-02-17T23:07:32.128Z,70.78
2023-02-17T23:08:34.810Z,71.88
2023-02-17T23:09:36.890Z,70.65
2023-02-17T23:10:43.593Z,71.80
2023-02-17T23:11:53.948Z,68.50
2023-02-17T23:12:56.119Z,67.60
2023-02-17T23:13:58.100Z,72.55
2023-02-17T23:15:01.236Z,68.88
2023-02-17T23:16:04.286Z,69.53
2023-02-17T23:17:09.749Z,72.85
2023-02-17T23:18:15.327Z,68.82
2023-02-17T23:19:19.626Z,71.10
2023-02-17T23:20:21.659Z,64.35
2023-02-17T23:21:23.556Z,67.00
2023-02-17T23:22:25.548Z,68.43
2023-02-17T23:23:27.531Z,69.95
2023-02-17T23:24:29.798Z,67.68
2023-02-17T23:25:31.989Z,70.72
2023-02-17T23:26:34.101Z,71.85
2023-02-17T23:27:35.995Z,71.18
2023-02-17T23:28:37.939Z,68.22
2023-02-17T23:29:41.486Z,68.10
2023-02-17T23:30:43.870Z,70.75
2023-02-17T23:31:46.092Z,70.50
2023-02-17T23:32:48.703Z,71.10
2023-02-17T23:33:50.801Z,68.45
2023-02-17T23:34:52.705Z,65.80
2023-02-17T23:35:54.630Z,67.63
2023-02-17T23:36:56.951Z,65.78
2023-02-17T23:37:59.410Z,65.00
2023-02-17T23:39:01.385Z,68.30
2023-02-17T23:40:04.827Z,64.03
2023-02-17T23:41:06.754Z,64.47
2023-02-17T23:42:08.766Z,65.22
2023-02-17T23:43:11.040Z,67.00
2023-02-17T23:44:15.663Z,68.35
2023-02-17T23:45:17.798Z,69.72
2023-02-17T23:46:20.844Z,69.25
2023-02-17T23:47:23.187Z,73.03
2023-02-17T23:48:25.098Z,62.67
2023-02-17T23:49:27.046Z,72.18
2023-02-17T23:50:28.897Z,69.72
2023-02-17T23:51:30.895Z,67.65
2023-02-17T23:52:34.826Z,70.40
2023-02-17T23:53:36.829Z,69.20
2023-02-17T23:54:38.809Z,66.75
2023-02-17T23:55:40.724Z,71.07
2023-02-17T23:56:42.842Z,65.50
2023-02-17T23:57:45.111Z,73.45
2023-02-17T23:58:46.965Z,64.57
2023-02-17T23:59:49.139Z,62.22
